This is the latest recevied weather packets stored in our database for station/object K6JWN. If no packets are shown the sender has not sent any weather packets the latest 10 day(s).
| Time | Temp. | Humidity | Pressure | Rain* | Wind** | Luminosity | Snow |
|---|---|---|---|---|---|---|---|
| 1777567336 | 18.33° C | 50% | 1013.7 hPa | 0 mm | - | - | - |
| 1777566752 | 17.78° C | 51% | 1013.7 hPa | 0 mm | - | - | - |
| 1777566137 | 17.78° C | 53% | 1013.7 hPa | 0 mm | - | - | - |
| 1777565536 | 17.22° C | 53% | 1013.8 hPa | 0 mm | - | - | - |
| 1777564937 | 16.67° C | 55% | 1013.8 hPa | 0 mm | - | - | - |
| 1777564336 | 16.67° C | 55% | 1013.7 hPa | 0 mm | - | - | - |
| 1777563736 | 15.56° C | 56% | 1013.7 hPa | 0 mm | - | - | - |
| 1777563136 | 16.11° C | 54% | 1013.7 hPa | 0 mm | - | - | - |
| 1777562536 | 16.11° C | 54% | 1013.8 hPa | 0 mm | - | - | - |
| 1777561938 | 16.11° C | 55% | 1013.8 hPa | 0 mm | - | - | - |
| 1777561337 | 15.56° C | 57% | 1013.9 hPa | 0 mm | - | - | - |
| 1777560736 | 14.44° C | 61% | 1013.9 hPa | 0 mm | - | - | - |
| 1777560136 | 13.33° C | 62% | 1013.9 hPa | 0 mm | - | - | - |
| 1777559536 | 13.33° C | 63% | 1013.9 hPa | 0 mm | - | - | - |
| 1777558936 | 12.22° C | 73% | 1013.8 hPa | 0 mm | - | - | - |
| 1777558336 | 10.56° C | 80% | 1013.7 hPa | 0 mm | - | - | - |
| 1777557736 | 10° C | 81% | 1013.7 hPa | 0 mm | - | - | - |
| 1777557136 | 9.44° C | 79% | 1013.7 hPa | 0 mm | - | - | - |
| 1777556537 | 8.89° C | 79% | 1013.6 hPa | 0 mm | - | - | - |
| 1777555936 | 8.89° C | 78% | 1013.5 hPa | 0 mm | - | - | - |
| 1777555336 | 9.44° C | 78% | 1013.4 hPa | 0 mm | - | - | - |
| 1777554736 | 9.44° C | 78% | 1013.5 hPa | 0 mm | - | - | - |
| 1777554136 | 10° C | 79% | 1013.3 hPa | 0 mm | - | - | - |
| 1777553536 | 9.44° C | 75% | 1013.2 hPa | 0 mm | - | - | - |
| 1777552936 | 10° C | 72% | 1013.2 hPa | 0 mm | - | - | - |
* Rain latest hour (hover to see other rain measurements)
** Current wind speed in m/s (hover to see current wind gust speed)